createdAt,value
2022-10-03T00:00:42.338Z,97.50
2022-10-03T00:06:15.501Z,97.32
2022-10-03T00:12:10.835Z,96.60
2022-10-03T00:17:27.415Z,96.40
2022-10-03T00:22:48.231Z,96.94
2022-10-03T00:28:05.287Z,97.56
2022-10-03T00:33:36.385Z,97.83
2022-10-03T00:38:40.735Z,97.74
2022-10-03T00:44:19.899Z,97.79
2022-10-03T00:49:39.099Z,98.62
2022-10-03T00:55:11.333Z,98.48
2022-10-03T01:00:26.031Z,97.95
2022-10-03T01:05:46.539Z,97.39
2022-10-03T01:11:28.771Z,97.66
2022-10-03T01:17:05.471Z,97.56
2022-10-03T01:22:22.293Z,97.12
2022-10-03T01:28:10.359Z,97.89
2022-10-03T01:33:24.683Z,97.94
2022-10-03T01:38:58.815Z,98.46
2022-10-03T01:44:24.557Z,97.67
2022-10-03T01:49:47.421Z,97.84
2022-10-03T01:55:04.054Z,98.13
2022-10-03T02:00:14.637Z,97.81
2022-10-03T02:05:48.287Z,98.97
2022-10-03T02:11:08.504Z,100.00
2022-10-03T02:16:52.827Z,100.00
2022-10-03T02:21:56.902Z,100.00
2022-10-03T02:27:31.745Z,100.00
2022-10-03T02:32:58.472Z,100.00
2022-10-03T02:38:17.652Z,100.00
2022-10-03T02:43:50.244Z,100.00
2022-10-03T02:49:13.378Z,100.00
2022-10-03T02:54:33.298Z,100.00
2022-10-03T03:00:07.211Z,100.00
2022-10-03T03:05:37.171Z,100.00
2022-10-03T03:10:52.487Z,100.00
2022-10-03T03:16:18.447Z,100.00
2022-10-03T03:21:41.933Z,100.00
2022-10-03T03:26:50.811Z,100.00
2022-10-03T03:32:11.028Z,100.00
2022-10-03T03:37:44.724Z,100.00
2022-10-03T03:43:08.803Z,100.00
2022-10-03T03:48:28.784Z,100.00
2022-10-03T03:53:54.060Z,100.00
2022-10-03T03:59:32.625Z,100.00
2022-10-03T04:04:52.125Z,100.00
2022-10-03T04:10:26.274Z,100.00
2022-10-03T04:15:36.083Z,100.00
2022-10-03T04:21:09.833Z,100.00
2022-10-03T04:26:31.259Z,100.00
2022-10-03T04:31:44.220Z,100.00
2022-10-03T04:36:55.152Z,100.00
2022-10-03T04:42:08.210Z,100.00
2022-10-03T04:47:19.129Z,100.00
2022-10-03T04:52:47.720Z,100.00
2022-10-03T04:58:06.811Z,100.00
2022-10-03T05:03:28.612Z,100.00
2022-10-03T05:08:54.690Z,100.00
2022-10-03T05:14:12.734Z,100.00
2022-10-03T05:19:29.555Z,100.00
2022-10-03T05:24:49.579Z,100.00
2022-10-03T05:30:06.969Z,100.00
2022-10-03T05:35:31.334Z,100.00
2022-10-03T05:40:37.198Z,100.00
2022-10-03T05:45:48.890Z,100.00
2022-10-03T05:51:15.598Z,100.00
2022-10-03T05:56:44.911Z,100.00
2022-10-03T06:02:35.894Z,100.00
2022-10-03T06:07:56.276Z,100.00
2022-10-03T06:13:04.063Z,100.00
2022-10-03T06:18:26.895Z,100.00
2022-10-03T06:23:47.019Z,100.00
2022-10-03T06:29:46.514Z,100.00
2022-10-03T06:35:19.069Z,100.00
2022-10-03T06:40:32.602Z,100.00
2022-10-03T06:45:50.127Z,100.00
2022-10-03T06:51:46.220Z,100.00
2022-10-03T06:57:13.042Z,100.00
2022-10-03T07:02:20.793Z,100.00
2022-10-03T07:07:40.924Z,99.63
2022-10-03T07:13:11.676Z,99.84
2022-10-03T07:18:27.683Z,98.46
2022-10-03T07:24:10.216Z,97.43
2022-10-03T07:29:14.635Z,97.81
2022-10-03T07:34:31.041Z,98.15
2022-10-03T07:40:11.352Z,96.02
2022-10-03T07:45:34.729Z,93.75
2022-10-03T07:51:15.131Z,93.66
2022-10-03T07:56:32.407Z,93.77
2022-10-03T08:01:42.767Z,91.62
2022-10-03T08:06:56.063Z,88.90
2022-10-03T08:12:12.941Z,93.10
2022-10-03T08:17:57.280Z,94.09
2022-10-03T08:23:34.620Z,93.73
2022-10-03T08:28:58.121Z,93.54
2022-10-03T08:34:38.565Z,85.02
2022-10-03T08:39:49.345Z,85.52
2022-10-03T08:45:05.876Z,86.48
2022-10-03T08:50:25.600Z,88.75
2022-10-03T08:55:45.639Z,89.15
2022-10-03T09:01:23.602Z,87.83
2022-10-03T09:07:17.128Z,84.43
2022-10-03T09:12:51.070Z,85.25
2022-10-03T09:18:11.022Z,83.41
2022-10-03T09:23:38.902Z,82.42
2022-10-03T09:28:48.057Z,81.93
2022-10-03T09:33:55.804Z,79.92
2022-10-03T09:39:26.564Z,73.58
2022-10-03T09:44:46.358Z,72.76
2022-10-03T09:50:28.619Z,71.20
2022-10-03T09:55:36.480Z,69.80
2022-10-03T10:01:10.916Z,67.29
2022-10-03T10:06:15.446Z,68.87
2022-10-03T10:11:41.703Z,72.07
2022-10-03T10:17:20.191Z,64.65
2022-10-03T10:22:49.966Z,66.65
2022-10-03T10:28:06.615Z,70.14
2022-10-03T10:33:30.042Z,73.23
2022-10-03T10:38:56.853Z,74.62
2022-10-03T10:44:29.541Z,73.09
2022-10-03T10:49:46.101Z,70.08
2022-10-03T10:55:15.389Z,64.25
2022-10-03T11:00:37.541Z,65.86
2022-10-03T11:05:46.990Z,67.31
2022-10-03T11:11:01.082Z,68.64
2022-10-03T11:16:08.473Z,70.00
2022-10-03T11:21:52.761Z,71.91
2022-10-03T11:27:00.155Z,70.12
2022-10-03T11:32:13.801Z,69.44
2022-10-03T11:37:38.770Z,73.63
2022-10-03T11:43:00.635Z,72.87
2022-10-03T11:48:33.368Z,74.93
2022-10-03T11:54:03.626Z,75.29
2022-10-03T11:59:32.880Z,73.42
2022-10-03T12:04:45.629Z,72.64
2022-10-03T12:10:30.454Z,72.49
2022-10-03T12:15:45.687Z,69.24
2022-10-03T12:21:08.241Z,70.06
2022-10-03T12:26:17.372Z,71.89
2022-10-03T12:31:36.176Z,72.85
2022-10-03T12:37:02.892Z,72.49
2022-10-03T12:42:24.419Z,73.41
2022-10-03T12:47:56.333Z,74.66
2022-10-03T12:53:16.316Z,75.69
2022-10-03T12:58:39.049Z,75.51
2022-10-03T13:03:50.737Z,75.30
2022-10-03T13:09:10.752Z,77.03
2022-10-03T13:14:33.882Z,76.88
2022-10-03T13:19:58.171Z,76.67
2022-10-03T13:25:14.790Z,76.34
2022-10-03T13:30:31.359Z,75.12
2022-10-03T13:35:58.861Z,74.23
2022-10-03T13:41:06.484Z,73.13
2022-10-03T13:46:16.735Z,74.93
2022-10-03T13:51:34.665Z,75.78
2022-10-03T13:57:05.491Z,74.99
2022-10-03T14:02:08.463Z,74.16
2022-10-03T14:07:16.167Z,75.25
2022-10-03T14:13:12.704Z,76.18
2022-10-03T14:18:39.035Z,75.96
2022-10-03T14:23:59.860Z,76.60
2022-10-03T14:29:14.746Z,76.62
2022-10-03T14:34:19.382Z,76.39
2022-10-03T14:39:46.578Z,75.16
2022-10-03T14:44:57.294Z,74.64
2022-10-03T14:50:00.317Z,73.61
2022-10-03T14:55:15.280Z,73.82
2022-10-03T15:00:27.520Z,72.44
2022-10-03T15:05:35.329Z,70.53
2022-10-03T15:10:37.752Z,71.35
2022-10-03T15:15:42.026Z,72.39
2022-10-03T15:20:46.220Z,74.32
2022-10-03T15:25:53.875Z,75.41
2022-10-03T15:30:58.199Z,76.00
2022-10-03T15:36:25.642Z,75.72
2022-10-03T15:41:50.334Z,76.58
2022-10-03T15:46:56.931Z,76.38
2022-10-03T15:52:09.684Z,78.28
2022-10-03T15:57:33.243Z,78.62
2022-10-03T16:02:43.261Z,78.73
2022-10-03T16:08:09.316Z,79.42
2022-10-03T16:13:16.744Z,80.29
2022-10-03T16:18:18.386Z,80.69
2022-10-03T16:23:24.572Z,80.88
2022-10-03T16:28:30.654Z,81.45
2022-10-03T16:33:40.783Z,81.62
2022-10-03T16:38:52.493Z,81.87
2022-10-03T16:43:56.710Z,80.64
2022-10-03T16:49:20.613Z,80.75
2022-10-03T16:54:24.072Z,80.35
2022-10-03T16:59:28.605Z,80.58
2022-10-03T17:04:39.530Z,81.30
2022-10-03T17:09:46.500Z,81.77
2022-10-03T17:14:48.597Z,81.65
2022-10-03T17:19:55.916Z,82.16
2022-10-03T17:25:04.324Z,82.12
2022-10-03T17:30:22.213Z,82.38
2022-10-03T17:36:05.917Z,83.48
2022-10-03T17:41:23.443Z,83.76
2022-10-03T17:47:05.210Z,84.75
2022-10-03T17:52:14.103Z,84.60
2022-10-03T17:57:20.702Z,84.71
2022-10-03T18:02:31.769Z,84.52
2022-10-03T18:07:35.167Z,84.81
2022-10-03T18:12:40.435Z,86.01
2022-10-03T18:18:15.313Z,88.67
2022-10-03T18:23:49.824Z,91.73
2022-10-03T18:28:57.378Z,97.12
2022-10-03T18:34:09.143Z,99.81
2022-10-03T18:39:22.681Z,100.00
2022-10-03T18:44:28.327Z,100.00
2022-10-03T18:49:34.564Z,100.00
2022-10-03T18:54:54.501Z,100.00
2022-10-03T19:00:03.936Z,100.00
2022-10-03T19:05:26.774Z,99.55
2022-10-03T19:10:39.649Z,99.96
2022-10-03T19:16:15.101Z,99.28
2022-10-03T19:21:20.140Z,99.36
2022-10-03T19:26:31.253Z,99.45
2022-10-03T19:31:47.129Z,100.00
2022-10-03T19:36:51.713Z,100.00
2022-10-03T19:41:57.187Z,100.00
2022-10-03T19:47:05.485Z,100.00
2022-10-03T19:52:31.405Z,100.00
2022-10-03T19:57:41.764Z,100.00
2022-10-03T20:02:45.148Z,100.00
2022-10-03T20:07:55.953Z,100.00
2022-10-03T20:13:03.580Z,99.73
2022-10-03T20:18:07.149Z,99.66
2022-10-03T20:23:15.328Z,99.19
2022-10-03T20:28:23.484Z,98.82
2022-10-03T20:33:30.110Z,98.49
2022-10-03T20:38:56.531Z,98.43
2022-10-03T20:44:11.101Z,98.52
2022-10-03T20:49:18.657Z,98.50
2022-10-03T20:54:23.430Z,98.95
2022-10-03T20:59:45.431Z,98.79
2022-10-03T21:05:01.628Z,98.63
2022-10-03T21:10:38.609Z,99.13
2022-10-03T21:15:51.122Z,98.92
2022-10-03T21:21:23.645Z,99.66
2022-10-03T21:26:31.060Z,99.31
2022-10-03T21:31:48.278Z,98.75
2022-10-03T21:37:11.245Z,98.72
2022-10-03T21:42:19.015Z,98.47
2022-10-03T21:47:32.527Z,98.63
2022-10-03T21:53:27.776Z,98.14
2022-10-03T21:58:49.904Z,97.81
2022-10-03T22:04:01.636Z,97.52
2022-10-03T22:09:11.388Z,97.63
2022-10-03T22:14:18.768Z,97.59
2022-10-03T22:19:23.233Z,97.38
2022-10-03T22:24:38.893Z,97.33
2022-10-03T22:30:17.542Z,97.10
2022-10-03T22:35:19.202Z,96.77
2022-10-03T22:40:22.034Z,97.40
2022-10-03T22:45:26.367Z,96.67
2022-10-03T22:50:32.750Z,96.91
2022-10-03T22:55:34.476Z,96.48
2022-10-03T23:00:36.393Z,96.11
2022-10-03T23:05:53.330Z,96.11
2022-10-03T23:10:59.995Z,96.09
2022-10-03T23:16:25.641Z,96.35
2022-10-03T23:21:27.439Z,96.17
2022-10-03T23:27:06.172Z,96.13
2022-10-03T23:32:09.967Z,96.17
2022-10-03T23:37:11.580Z,95.79
2022-10-03T23:42:25.343Z,96.71
2022-10-03T23:47:32.690Z,96.54
2022-10-03T23:52:46.571Z,96.13
2022-10-03T23:57:48.520Z,95.89
